Time;durP1;ratioP1;P1;durP2;ratioP2;P2;SDS_P1;SDS_P2;PMS_P1;PMS_P2;Temp;Humidity;BMP_temperature;BMP_pressure;BME280_temperature;BME280_humidity;BME280_pressure;Samples;Min_cycle;Max_cycle;Signal;HPM_P1;HPM_P2
2022/07/09 00:01:19;;;;;;;5.38;4.60;;;;;;;18.28;53.63;98384.75;4975115;28;20199;-75
2022/07/09 00:03:45;;;;;;;4.47;4.07;;;;;;;18.25;53.63;98378.16;4962100;28;20699;-76
2022/07/09 00:06:10;;;;;;;7.45;4.78;;;;;;;18.22;53.87;98377.91;4960298;28;20370;-75
2022/07/09 00:08:35;;;;;;;5.20;4.70;;;;;;;18.22;53.80;98375.28;4977108;28;20744;-76
2022/07/09 00:11:01;;;;;;;5.13;4.38;;;;;;;18.15;53.82;98372.91;4960388;28;20164;-75
2022/07/09 00:13:26;;;;;;;6.05;4.32;;;;;;;18.11;53.73;98367.38;4969238;28;20327;-75
2022/07/09 00:15:54;;;;;;;5.07;4.10;;;;;;;18.12;53.72;98370.78;4927564;28;20256;-75
2022/07/09 00:18:20;;;;;;;4.75;4.22;;;;;;;18.06;54.01;98374.47;4946630;28;20658;-75
2022/07/09 00:20:45;;;;;;;4.90;4.35;;;;;;;17.99;54.08;98368.66;4947197;28;20260;-75
2022/07/09 00:23:11;;;;;;;6.38;4.60;;;;;;;17.95;54.35;98368.41;4947131;28;20295;-75
2022/07/09 00:25:36;;;;;;;5.90;4.40;;;;;;;17.93;54.62;98371.31;4962859;28;20230;-75
2022/07/09 00:28:02;;;;;;;5.50;5.00;;;;;;;17.91;54.49;98359.47;4963659;28;20211;-75
2022/07/09 00:30:27;;;;;;;8.10;4.85;;;;;;;17.90;54.58;98365.78;4947122;28;20207;-75
2022/07/09 00:32:52;;;;;;;4.63;3.92;;;;;;;17.85;54.97;98361.25;4948499;28;20670;-75
2022/07/09 00:35:18;;;;;;;6.47;4.10;;;;;;;17.84;54.99;98361.50;4963126;28;20732;-75
2022/07/09 00:37:44;;;;;;;4.75;3.95;;;;;;;17.81;54.97;98357.56;4946739;28;20169;-75
2022/07/09 00:40:09;;;;;;;5.05;3.88;;;;;;;17.77;55.12;98359.94;4963496;28;20283;-75
2022/07/09 00:42:35;;;;;;;4.85;4.22;;;;;;;17.79;55.49;98357.81;4946527;28;20195;-76
2022/07/09 00:45:00;;;;;;;4.50;4.10;;;;;;;17.80;55.53;98355.97;4943198;28;20208;-75
2022/07/09 00:47:26;;;;;;;4.75;4.00;;;;;;;17.79;55.78;98357.81;4968623;28;20637;-75
2022/07/09 00:49:51;;;;;;;5.32;4.07;;;;;;;17.76;56.11;98349.66;4946395;28;20361;-75
2022/07/09 00:52:17;;;;;;;6.10;4.18;;;;;;;17.73;56.08;98343.06;4943913;28;20306;-75
2022/07/09 00:54:44;;;;;;;7.13;4.35;;;;;;;17.67;56.15;98349.38;4913695;28;20215;-75
2022/07/09 00:57:10;;;;;;;3.78;3.47;;;;;;;17.67;56.09;98345.97;4963089;28;20244;-75
2022/07/09 00:59:36;;;;;;;4.45;3.95;;;;;;;17.64;56.39;98346.50;4944863;28;20203;-75
2022/07/09 01:02:02;;;;;;;6.03;3.65;;;;;;;17.61;56.55;98342.50;4958686;28;20211;-76
2022/07/09 01:04:28;;;;;;;4.80;4.05;;;;;;;17.59;56.71;98339.34;4944839;28;20184;-75
2022/07/09 01:06:53;;;;;;;6.22;4.20;;;;;;;17.58;56.71;98337.75;4946343;28;20200;-75
2022/07/09 01:09:19;;;;;;;5.05;3.97;;;;;;;17.57;56.87;98336.19;4945908;28;20168;-76
2022/07/09 01:11:46;;;;;;;5.72;4.15;;;;;;;17.54;56.87;98337.50;4946358;28;20712;-76
2022/07/09 01:14:11;;;;;;;5.60;4.28;;;;;;;17.55;57.32;98338.31;4961917;28;20671;-75
2022/07/09 01:16:37;;;;;;;5.25;4.30;;;;;;;17.52;57.02;98336.97;4913566;28;20215;-75
2022/07/09 01:19:03;;;;;;;5.60;3.88;;;;;;;17.42;57.14;98326.41;4946091;28;20270;-75
2022/07/09 01:21:29;;;;;;;5.22;4.25;;;;;;;17.47;56.72;98326.44;4945981;28;20681;-76
2022/07/09 01:23:56;;;;;;;4.13;3.70;;;;;;;17.46;56.63;98327.50;4951798;28;20283;-75
2022/07/09 01:26:23;;;;;;;5.10;3.85;;;;;;;17.41;56.77;98333.53;4961104;28;20246;-76
2022/07/09 01:28:48;;;;;;;4.07;3.72;;;;;;;17.38;57.11;98318.25;4945850;28;20682;-75
2022/07/09 01:31:14;;;;;;;5.13;3.47;;;;;;;17.33;56.93;98325.34;4917912;28;20122;-76
2022/07/09 01:33:40;;;;;;;4.53;3.85;;;;;;;17.31;56.82;98322.19;4945660;28;20258;-75
2022/07/09 01:36:06;;;;;;;4.82;4.05;;;;;;;17.27;56.74;98327.16;4945544;28;20700;-76
2022/07/09 01:38:32;;;;;;;4.07;3.60;;;;;;;17.28;57.32;98318.22;4962386;28;20254;-75
2022/07/09 01:40:57;;;;;;;5.95;4.35;;;;;;;17.23;57.34;98311.09;4947064;28;20671;-75
2022/07/09 01:43:23;;;;;;;5.55;4.13;;;;;;;17.16;57.01;98309.78;4958702;28;20207;-75
2022/07/09 01:45:48;;;;;;;4.38;3.90;;;;;;;17.16;56.79;98305.31;4945526;28;20196;-75
2022/07/09 01:48:14;;;;;;;4.32;3.83;;;;;;;17.13;56.84;98311.06;4945301;28;20214;-75
2022/07/09 01:50:39;;;;;;;6.45;3.78;;;;;;;17.07;56.85;98312.13;4945564;28;20215;-75
2022/07/09 01:53:04;;;;;;;4.70;4.30;;;;;;;17.06;57.05;98310.53;4929074;28;20192;-76
2022/07/09 01:55:30;;;;;;;4.18;3.80;;;;;;;17.05;57.09;98306.34;4944869;28;20264;-75
2022/07/09 01:57:55;;;;;;;5.30;4.35;;;;;;;16.98;57.41;98308.41;4945566;28;20566;-75
2022/07/09 02:00:21;;;;;;;4.95;4.45;;;;;;;16.91;57.09;98308.63;4945362;28;20204;-75
2022/07/09 02:02:46;;;;;;;5.28;4.25;;;;;;;16.88;56.98;98303.91;4926582;28;20567;-75
2022/07/09 02:05:12;;;;;;;4.53;3.90;;;;;;;16.81;57.22;98305.94;4961999;28;20773;-75
2022/07/09 02:07:37;;;;;;;5.30;3.97;;;;;;;16.80;57.21;98312.25;4944900;28;20207;-75
2022/07/09 02:10:03;;;;;;;4.78;4.00;;;;;;;16.71;57.73;98308.50;4944319;28;20207;-75
2022/07/09 02:12:29;;;;;;;5.32;4.50;;;;;;;16.64;57.86;98308.78;4945455;28;20641;-76
2022/07/09 02:14:54;;;;;;;4.25;3.95;;;;;;;16.55;58.17;98307.66;4945208;28;20199;-76
2022/07/09 02:17:20;;;;;;;4.88;4.35;;;;;;;16.55;58.03;98310.28;4945372;28;20305;-75
2022/07/09 02:19:45;;;;;;;4.45;4.05;;;;;;;16.53;57.92;98312.38;4947381;28;20277;-76
2022/07/09 02:22:10;;;;;;;5.40;4.10;;;;;;;16.46;58.17;98305.50;4945017;28;20283;-76
2022/07/09 02:24:36;;;;;;;5.53;4.28;;;;;;;16.48;57.91;98302.63;4945427;28;20199;-75
2022/07/09 02:27:01;;;;;;;4.68;4.00;;;;;;;16.47;58.19;98304.47;4945012;28;20578;-75
2022/07/09 02:29:27;;;;;;;4.85;4.13;;;;;;;16.51;57.66;98306.59;4947189;28;20229;-75
2022/07/09 02:31:54;;;;;;;6.25;5.07;;;;;;;16.44;57.66;98310.22;4946365;28;20153;-76
2022/07/09 02:34:20;;;;;;;4.85;4.28;;;;;;;16.40;58.25;98313.59;4928396;28;20281;-75
2022/07/09 02:36:46;;;;;;;5.47;4.65;;;;;;;16.32;58.31;98309.63;4944729;28;20229;-75
2022/07/09 02:39:11;;;;;;;5.82;4.32;;;;;;;16.29;58.84;98308.28;4946379;28;20211;-75
2022/07/09 02:41:36;;;;;;;5.00;4.40;;;;;;;16.29;58.97;98315.38;4940308;28;20175;-76
2022/07/09 02:44:02;;;;;;;6.32;4.20;;;;;;;16.27;59.18;98304.34;4925960;28;20373;-76
2022/07/09 02:46:27;;;;;;;4.88;4.38;;;;;;;16.27;59.04;98307.75;4925166;28;20207;-75
2022/07/09 02:48:52;;;;;;;5.60;4.65;;;;;;;16.24;59.00;98305.63;4943310;28;20140;-76
2022/07/09 02:51:18;;;;;;;4.35;3.95;;;;;;;16.32;58.67;98312.25;4945119;28;20677;-75
2022/07/09 02:53:43;;;;;;;7.35;4.05;;;;;;;16.33;58.47;98307.78;4944999;28;20274;-76
2022/07/09 02:56:09;;;;;;;5.82;4.53;;;;;;;16.31;58.52;98310.66;4941957;28;20203;-75
2022/07/09 02:58:34;;;;;;;4.38;3.97;;;;;;;16.25;58.53;98309.84;4961606;28;20195;-76
2022/07/09 03:00:59;;;;;;;4.50;4.10;;;;;;;16.26;58.52;98310.63;4939279;28;20176;-76
2022/07/09 03:03:26;;;;;;;6.72;4.53;;;;;;;16.20;58.85;98307.19;4943879;28;20199;-75
2022/07/09 03:05:51;;;;;;;5.75;4.13;;;;;;;16.18;59.26;98311.13;4945566;28;20258;-75
2022/07/09 03:08:17;;;;;;;5.13;4.00;;;;;;;16.15;59.15;98303.75;4944259;28;20207;-76
2022/07/09 03:10:43;;;;;;;5.68;4.35;;;;;;;16.18;58.91;98300.63;4944024;28;20203;-75
2022/07/09 03:13:08;;;;;;;5.85;4.75;;;;;;;16.21;58.57;98303.53;4944109;28;20310;-75
2022/07/09 03:15:34;;;;;;;4.28;3.88;;;;;;;16.21;58.35;98298.28;4927940;28;20281;-76
2022/07/09 03:17:59;;;;;;;5.88;4.20;;;;;;;16.17;58.06;98299.81;4944423;28;20716;-76
2022/07/09 03:20:24;;;;;;;5.00;4.00;;;;;;;16.06;58.91;98298.16;4943982;28;20282;-75
2022/07/09 03:22:50;;;;;;;6.68;4.68;;;;;;;16.02;59.24;98302.31;4944219;28;20254;-75
2022/07/09 03:25:15;;;;;;;4.47;4.07;;;;;;;16.01;59.06;98300.75;4927164;28;20545;-76
2022/07/09 03:27:40;;;;;;;5.78;4.30;;;;;;;15.93;59.18;98301.22;4944140;28;20264;-76
2022/07/09 03:30:06;;;;;;;4.38;3.97;;;;;;;15.87;59.19;98298.53;4960731;28;20196;-76
2022/07/09 03:32:32;;;;;;;4.32;3.92;;;;;;;15.84;59.50;98293.78;4960286;28;20258;-76
2022/07/09 03:34:57;;;;;;;5.78;4.05;;;;;;;15.85;59.27;98298.00;4943837;28;20436;-76
2022/07/09 03:37:23;;;;;;;5.05;4.55;;;;;;;15.82;59.43;98289.84;4944168;28;20582;-76
2022/07/09 03:39:49;;;;;;;5.88;4.75;;;;;;;15.79;59.52;98304.25;4943842;28;20841;-76
2022/07/09 03:42:14;;;;;;;4.88;4.15;;;;;;;15.73;59.61;98302.63;4960412;28;20203;-76
2022/07/09 03:44:39;;;;;;;5.18;4.68;;;;;;;15.77;59.31;98301.09;4957956;28;20629;-76
2022/07/09 03:47:06;;;;;;;4.43;3.97;;;;;;;15.79;59.05;98293.75;4927340;28;20149;-76
2022/07/09 03:49:31;;;;;;;4.20;3.78;;;;;;;15.79;59.13;98292.97;4946777;28;20591;-76
2022/07/09 03:51:57;;;;;;;5.45;4.10;;;;;;;15.73;59.03;98295.53;4947492;28;20176;-75
2022/07/09 03:54:23;;;;;;;4.95;4.00;;;;;;;15.77;59.35;98306.34;4947487;28;20157;-76
2022/07/09 03:56:49;;;;;;;4.53;4.13;;;;;;;15.78;59.36;98299.25;4947572;28;20645;-76
2022/07/09 03:59:14;;;;;;;4.28;3.72;;;;;;;15.78;59.53;98307.94;4947375;28;20747;-76
2022/07/09 04:01:40;;;;;;;4.68;3.83;;;;;;;15.77;59.67;98311.59;4944256;28;20223;-76
2022/07/09 04:04:05;;;;;;;4.55;4.13;;;;;;;15.78;59.60;98302.69;4947411;28;20656;-76
2022/07/09 04:06:31;;;;;;;5.13;4.07;;;;;;;15.77;59.96;98305.56;4931495;28;20215;-76
2022/07/09 04:08:56;;;;;;;5.50;4.20;;;;;;;15.82;59.88;98306.38;4964533;28;20207;-76
2022/07/09 04:11:21;;;;;;;4.65;4.25;;;;;;;15.84;60.44;98304.28;4964163;28;20726;-76
2022/07/09 04:13:47;;;;;;;4.68;4.03;;;;;;;15.88;60.39;98300.13;4947288;28;20204;-76
2022/07/09 04:16:13;;;;;;;5.15;4.65;;;;;;;15.95;60.62;98301.75;4947713;28;20679;-76
2022/07/09 04:18:42;;;;;;;5.20;4.70;;;;;;;15.98;60.52;98302.03;4949759;28;20366;-76
2022/07/09 04:21:08;;;;;;;4.45;4.05;;;;;;;16.06;60.48;98308.69;4941462;28;20661;-76
2022/07/09 04:23:33;;;;;;;5.18;4.05;;;;;;;16.11;60.41;98300.81;4963181;28;20253;-75
2022/07/09 04:25:59;;;;;;;6.03;4.38;;;;;;;16.19;60.36;98295.09;4930789;28;20248;-75
2022/07/09 04:28:24;;;;;;;4.72;4.20;;;;;;;16.32;60.22;98307.00;4947623;28;20188;-75
2022/07/09 04:30:50;;;;;;;5.03;4.35;;;;;;;16.39;60.07;98306.78;4963785;28;20263;-75
2022/07/09 04:33:15;;;;;;;4.22;3.80;;;;;;;16.53;59.54;98307.13;4930894;28;20211;-75
2022/07/09 04:35:40;;;;;;;4.25;3.50;;;;;;;16.63;59.31;98309.81;4946152;28;20157;-75
2022/07/09 04:38:06;;;;;;;4.72;3.80;;;;;;;16.77;58.75;98315.38;4947232;28;20184;-75
2022/07/09 04:40:31;;;;;;;4.22;3.83;;;;;;;16.84;58.82;98303.63;4948315;28;20373;-75
2022/07/09 04:42:56;;;;;;;6.38;4.55;;;;;;;16.97;58.99;98304.97;4947129;28;20676;-75
2022/07/09 04:45:22;;;;;;;5.05;4.30;;;;;;;17.07;58.92;98306.06;4945840;28;20242;-77
2022/07/09 04:47:47;;;;;;;5.97;4.18;;;;;;;17.18;58.69;98310.31;4948701;28;20283;-77
2022/07/09 04:50:13;;;;;;;4.40;4.00;;;;;;;17.24;58.58;98306.66;4946947;28;20181;-75
2022/07/09 04:52:38;;;;;;;4.30;3.63;;;;;;;17.31;58.57;98301.94;4947129;28;20200;-75
2022/07/09 04:55:05;;;;;;;4.65;3.80;;;;;;;17.38;58.66;98306.94;4952095;28;20210;-75
2022/07/09 04:57:30;;;;;;;4.00;3.67;;;;;;;17.47;58.65;98300.09;4948442;28;20165;-75
2022/07/09 05:00:00;;;;;;;4.40;4.00;;;;;;;17.44;58.44;98297.19;4945111;28;20191;-75
2022/07/09 05:02:25;;;;;;;4.47;3.58;;;;;;;17.66;58.15;98305.66;4917814;28;20213;-75
2022/07/09 05:04:51;;;;;;;4.03;3.63;;;;;;;17.77;57.83;98301.97;4960823;28;20240;-75
2022/07/09 05:07:16;;;;;;;4.35;3.45;;;;;;;17.86;58.19;98298.81;4961608;28;20389;-75
2022/07/09 05:09:41;;;;;;;3.88;3.58;;;;;;;17.96;57.87;98306.75;4962422;28;20203;-75
2022/07/09 05:12:08;;;;;;;3.88;3.58;;;;;;;18.06;57.72;98298.84;4951347;28;20264;-75
2022/07/09 05:14:34;;;;;;;3.92;3.53;;;;;;;18.17;57.66;98296.97;4961070;28;20598;-75
2022/07/09 05:16:59;;;;;;;4.10;3.28;;;;;;;18.31;57.58;98291.94;4961669;28;20134;-75
2022/07/09 05:19:24;;;;;;;3.83;3.45;;;;;;;18.40;57.42;98298.25;4961782;28;20170;-75
2022/07/09 05:21:50;;;;;;;5.22;3.92;;;;;;;18.49;57.37;98291.38;4928738;28;20215;-75
2022/07/09 05:24:15;;;;;;;4.47;4.07;;;;;;;18.59;57.20;98293.16;4944841;28;20220;-75
2022/07/09 05:26:41;;;;;;;4.20;3.80;;;;;;;18.68;57.11;98296.06;4941651;28;20261;-75
2022/07/09 05:29:06;;;;;;;4.22;3.78;;;;;;;18.81;56.74;98289.41;4938801;28;20634;-75
2022/07/09 05:31:31;;;;;;;4.20;3.80;;;;;;;18.89;56.34;98297.59;4961348;28;20368;-75
2022/07/09 05:33:57;;;;;;;4.47;4.07;;;;;;;18.94;56.44;98288.88;4944759;28;20271;-75
2022/07/09 05:36:22;;;;;;;4.70;3.60;;;;;;;19.07;56.60;98287.47;4956997;28;20188;-75
2022/07/09 05:38:48;;;;;;;4.25;3.80;;;;;;;19.19;56.60;98287.94;4941632;28;20306;-75
2022/07/09 05:41:15;;;;;;;4.10;3.70;;;;;;;19.35;56.32;98286.00;4947063;28;20706;-75
2022/07/09 05:43:40;;;;;;;4.72;3.42;;;;;;;19.48;56.07;98281.16;4939609;28;20280;-75
2022/07/09 05:46:06;;;;;;;3.63;3.33;;;;;;;19.65;56.07;98279.72;4944954;28;20223;-75
2022/07/09 05:48:31;;;;;;;4.40;3.40;;;;;;;19.87;55.53;98278.50;4928238;28;20223;-75
2022/07/09 05:50:56;;;;;;;5.10;3.63;;;;;;;20.02;55.62;98274.94;4945254;28;20204;-75
2022/07/09 05:53:22;;;;;;;4.20;3.65;;;;;;;20.13;55.44;98278.28;4944247;28;20295;-75
2022/07/09 05:55:47;;;;;;;3.92;3.42;;;;;;;20.24;55.47;98285.03;4931425;28;20432;-75
2022/07/09 05:58:13;;;;;;;3.88;3.58;;;;;;;20.36;55.37;98282.03;4957396;28;20271;-75
2022/07/09 06:00:38;;;;;;;5.35;3.60;;;;;;;20.43;55.32;98273.75;4945391;28;20565;-75
2022/07/09 06:03:04;;;;;;;4.07;3.67;;;;;;;20.53;55.06;98281.56;4924505;28;20308;-75
2022/07/09 06:05:29;;;;;;;3.47;3.28;;;;;;;20.61;55.03;98285.44;4946782;28;20250;-76
2022/07/09 06:07:55;;;;;;;3.70;3.30;;;;;;;20.68;54.71;98286.72;4945527;28;20767;-76
2022/07/09 06:10:23;;;;;;;3.45;3.15;;;;;;;20.77;54.60;98284.22;4945236;28;20265;-76
2022/07/09 06:12:48;;;;;;;3.53;3.17;;;;;;;20.89;54.28;98289.13;4945743;28;20716;-76
2022/07/09 06:15:14;;;;;;;5.43;3.47;;;;;;;20.99;53.85;98285.53;4944606;28;20188;-76
2022/07/09 06:17:39;;;;;;;3.90;3.17;;;;;;;21.07;53.47;98279.59;4945655;28;20180;-75
2022/07/09 06:20:06;;;;;;;3.78;3.38;;;;;;;21.12;53.20;98275.00;4929160;28;20286;-76
2022/07/09 06:22:31;;;;;;;5.50;3.50;;;;;;;21.25;52.64;98283.31;4946970;28;20196;-76
2022/07/09 06:24:57;;;;;;;4.05;3.30;;;;;;;21.36;52.80;98284.75;4945448;28;20191;-76
2022/07/09 06:27:22;;;;;;;3.90;3.10;;;;;;;21.56;52.55;98282.91;4947224;28;20247;-76
2022/07/09 06:29:47;;;;;;;3.40;3.20;;;;;;;21.71;52.08;98285.31;4945331;28;20693;-76
2022/07/09 06:32:13;;;;;;;3.80;2.92;;;;;;;21.92;51.23;98284.97;4945395;28;20187;-76
2022/07/09 06:34:38;;;;;;;4.07;3.10;;;;;;;22.12;51.17;98284.63;4943305;28;20276;-76
2022/07/09 06:37:06;;;;;;;3.08;2.83;;;;;;;22.27;50.29;98278.25;4945124;28;20314;-76
2022/07/09 06:39:50;;;;;;;4.80;3.50;;;;;;;22.39;50.56;98289.19;4960754;28;20183;-77
2022/07/09 06:42:17;;;;;;;4.97;3.22;;;;;;;22.59;49.91;98285.38;4945243;28;20269;-76
2022/07/09 06:44:43;;;;;;;3.28;3.03;;;;;;;22.87;49.94;98289.88;4927171;28;20149;-77
2022/07/09 06:47:08;;;;;;;3.15;2.85;;;;;;;23.11;49.18;98294.97;4929016;28;20637;-77
2022/07/09 06:49:34;;;;;;;3.45;3.08;;;;;;;23.29;48.33;98295.91;4945542;28;20285;-77
2022/07/09 06:52:00;;;;;;;3.33;3.03;;;;;;;23.55;47.89;98296.13;4947226;28;20438;-76
2022/07/09 06:54:25;;;;;;;4.50;3.45;;;;;;;23.78;47.56;98296.88;4944972;28;20772;-76
2022/07/09 06:56:54;;;;;;;4.05;3.15;;;;;;;24.13;46.32;98286.47;4960095;28;20212;-77
2022/07/09 06:59:21;;;;;;;2.72;2.47;;;;;;;24.38;45.38;98282.34;4941867;28;20193;-76
2022/07/09 07:01:47;;;;;;;4.90;2.45;;;;;;;24.67;44.74;98291.72;4939127;28;20200;-76
2022/07/09 07:04:14;;;;;;;5.70;2.90;;;;;;;24.92;43.92;98286.75;4944437;28;20219;-77
2022/07/09 07:06:42;;;;;;;3.97;2.80;;;;;;;24.97;44.44;98286.59;4944710;28;20354;-76
2022/07/09 07:09:08;;;;;;;3.60;2.28;;;;;;;25.13;42.79;98284.25;4944760;28;20354;-76
2022/07/09 07:11:34;;;;;;;4.22;2.33;;;;;;;25.19;42.15;98280.34;4960714;28;20671;-76
2022/07/09 07:14:00;;;;;;;3.47;2.53;;;;;;;25.43;41.99;98285.25;4944068;28;20144;-77
2022/07/09 07:16:25;;;;;;;3.78;3.35;;;;;;;25.26;41.78;98286.03;4945117;28;20237;-76
2022/07/09 07:18:51;;;;;;;4.38;2.97;;;;;;;25.51;41.01;98289.75;4945058;28;20353;-76
2022/07/09 07:21:16;;;;;;;4.85;3.75;;;;;;;25.81;40.65;98287.22;4944187;28;20693;-77
2022/07/09 07:23:41;;;;;;;4.80;3.38;;;;;;;25.90;40.65;98293.31;4945968;28;20224;-76
2022/07/09 07:26:07;;;;;;;10.32;6.68;;;;;;;26.09;39.65;98289.53;4950071;28;20241;-77
2022/07/09 07:28:33;;;;;;;5.68;3.95;;;;;;;26.29;40.39;98278.16;4964788;28;20176;-76
2022/07/09 07:30:59;;;;;;;4.43;2.90;;;;;;;26.62;39.37;98280.22;4948018;28;20119;-75
2022/07/09 07:33:24;;;;;;;4.80;3.80;;;;;;;26.56;39.54;98281.47;4931605;28;20294;-76
2022/07/09 07:35:50;;;;;;;4.40;3.00;;;;;;;26.51;39.78;98279.78;4947815;28;20247;-76
2022/07/09 07:38:15;;;;;;;4.93;3.05;;;;;;;26.83;38.90;98285.56;4925669;28;20208;-77
2022/07/09 07:40:42;;;;;;;5.03;2.80;;;;;;;26.81;38.62;98284.34;4915329;28;20720;-77
2022/07/09 07:43:10;;;;;;;2.75;2.25;;;;;;;26.69;38.61;98280.47;4963716;28;20183;-77
2022/07/09 07:45:35;;;;;;;5.15;2.40;;;;;;;26.40;38.83;98277.78;4931501;28;20211;-76
2022/07/09 07:48:01;;;;;;;3.70;1.95;;;;;;;26.81;38.73;98281.69;4963999;28;20204;-76
2022/07/09 07:50:26;;;;;;;2.83;1.50;;;;;;;27.27;37.81;98280.69;4947917;28;20192;-76
2022/07/09 07:52:52;;;;;;;4.05;1.38;;;;;;;27.40;37.87;98280.78;4964192;28;20277;-76
2022/07/09 07:55:17;;;;;;;3.20;1.92;;;;;;;27.59;36.00;98282.97;4947391;28;20704;-76
2022/07/09 07:57:43;;;;;;;2.78;1.92;;;;;;;27.82;36.08;98272.69;4947466;28;20255;-75
2022/07/09 08:00:09;;;;;;;2.50;1.60;;;;;;;27.86;35.12;98270.88;4947688;28;20644;-76
2022/07/09 08:02:34;;;;;;;2.05;1.63;;;;;;;27.77;35.30;98276.34;4960918;28;20192;-76
2022/07/09 08:05:00;;;;;;;2.13;1.80;;;;;;;27.97;35.70;98271.28;4949416;28;20211;-77
2022/07/09 08:07:26;;;;;;;3.05;2.10;;;;;;;27.99;34.58;98269.06;4964662;28;20654;-76
2022/07/09 08:09:52;;;;;;;2.10;1.73;;;;;;;28.27;35.79;98269.19;4948076;28;20263;-77
2022/07/09 08:12:17;;;;;;;4.03;2.80;;;;;;;27.56;35.96;98271.03;4964643;28;20247;-77
2022/07/09 08:14:42;;;;;;;2.78;2.40;;;;;;;27.93;35.42;98270.38;4948646;28;20225;-77
2022/07/09 08:17:08;;;;;;;2.70;2.17;;;;;;;28.16;34.70;98270.75;4948112;28;20207;-77
2022/07/09 08:19:33;;;;;;;2.63;2.08;;;;;;;28.11;35.63;98277.09;4947799;28;20697;-76
2022/07/09 08:21:59;;;;;;;4.45;1.83;;;;;;;28.18;34.93;98274.66;4947641;28;20329;-76
2022/07/09 08:24:24;;;;;;;3.83;2.05;;;;;;;27.91;35.71;98268.00;4947752;28;20363;-76
2022/07/09 08:26:50;;;;;;;4.18;2.40;;;;;;;27.86;35.48;98270.13;4947533;28;20739;-76
2022/07/09 08:29:15;;;;;;;2.33;2.13;;;;;;;27.91;35.83;98272.56;4947646;28;20196;-76
2022/07/09 08:31:40;;;;;;;2.58;2.03;;;;;;;27.91;34.50;98267.22;4924374;28;20246;-76
2022/07/09 08:34:06;;;;;;;2.95;2.40;;;;;;;27.89;34.36;98261.44;4977726;28;20202;-75
2022/07/09 08:36:31;;;;;;;4.25;3.00;;;;;;;27.70;34.57;98260.03;4963697;28;20639;-76
2022/07/09 08:38:57;;;;;;;4.28;2.35;;;;;;;27.95;33.92;98260.09;4963774;28;20192;-75
2022/07/09 08:41:23;;;;;;;3.97;2.25;;;;;;;28.03;33.59;98259.22;4973862;28;20192;-75
2022/07/09 08:43:50;;;;;;;5.20;2.28;;;;;;;28.23;33.51;98246.88;4946269;28;20302;-75
2022/07/09 08:46:16;;;;;;;4.07;2.90;;;;;;;28.13;34.40;98256.13;4948661;28;20185;-75
2022/07/09 08:48:42;;;;;;;2.58;2.35;;;;;;;28.16;34.03;98250.09;4947072;28;20278;-76
2022/07/09 08:51:08;;;;;;;2.80;2.20;;;;;;;28.47;33.33;98253.34;4946846;28;20354;-75
2022/07/09 08:53:34;;;;;;;3.05;2.53;;;;;;;28.44;32.83;98246.75;4963144;28;20212;-75
2022/07/09 08:55:59;;;;;;;3.20;2.47;;;;;;;27.87;34.20;98242.25;4914677;28;20172;-76
2022/07/09 08:58:25;;;;;;;3.00;1.95;;;;;;;28.19;33.52;98238.72;4948510;28;20269;-75
2022/07/09 09:00:50;;;;;;;2.35;2.13;;;;;;;28.25;32.09;98244.63;4946464;28;20207;-76
2022/07/09 09:03:17;;;;;;;3.97;2.33;;;;;;;28.08;32.40;98244.84;4935446;28;20168;-76
2022/07/09 09:05:43;;;;;;;2.60;2.17;;;;;;;28.16;33.58;98242.06;4928458;28;20303;-77
2022/07/09 09:08:24;;;;;;;3.13;1.92;;;;;;;28.47;32.84;98237.28;4942927;28;20279;-76
2022/07/09 09:10:50;;;;;;;2.80;1.60;;;;;;;29.21;31.79;98239.81;4929038;28;20846;-75
2022/07/09 09:13:19;;;;;;;2.85;1.70;;;;;;;29.18;31.68;98235.13;4929654;28;20346;-75
2022/07/09 09:15:44;;;;;;;3.70;2.15;;;;;;;29.37;31.71;98229.91;4927279;28;20174;-75
2022/07/09 09:18:10;;;;;;;2.33;1.65;;;;;;;29.60;31.86;98232.03;4929765;28;20257;-76
2022/07/09 09:20:36;;;;;;;2.45;2.25;;;;;;;29.77;30.89;98225.59;4946149;28;20224;-76
2022/07/09 09:23:04;;;;;;;6.45;2.10;;;;;;;29.54;31.20;98223.44;4929532;28;20170;-76
2022/07/09 09:25:29;;;;;;;2.38;1.75;;;;;;;29.88;30.48;98229.31;4945470;28;20683;-75
2022/07/09 09:27:59;;;;;;;1.85;1.67;;;;;;;30.03;30.92;98227.75;4962910;28;20368;-76
2022/07/09 09:30:26;;;;;;;2.20;1.73;;;;;;;29.94;30.30;98217.19;4916747;28;20673;-75
2022/07/09 09:33:02;;;;;;;2.22;1.67;;;;;;;30.31;31.39;98216.09;4947908;28;20075;-76
2022/07/09 09:35:34;;;;;;;3.13;2.00;;;;;;;29.93;30.26;98220.97;4945794;28;20618;-76
2022/07/09 09:38:00;;;;;;;1.60;1.45;;;;;;;30.03;30.05;98231.19;4962247;28;20187;-75
2022/07/09 09:40:25;;;;;;;6.07;2.05;;;;;;;29.31;31.25;98224.00;4946427;28;20215;-75
2022/07/09 09:42:52;;;;;;;2.42;2.00;;;;;;;28.94;31.66;98229.50;4928639;28;20634;-75
2022/07/09 09:45:18;;;;;;;1.92;1.83;;;;;;;28.76;32.11;98228.19;4928376;28;20195;-75
2022/07/09 09:47:48;;;;;;;2.70;2.15;;;;;;;28.46;32.20;98225.75;4961585;28;20653;-76
2022/07/09 09:50:17;;;;;;;4.47;1.92;;;;;;;28.40;32.45;98221.75;4945219;28;20215;-75
2022/07/09 09:52:45;;;;;;;4.00;2.40;;;;;;;28.05;33.73;98219.50;4945644;28;20161;-75
2022/07/09 09:55:11;;;;;;;2.60;2.40;;;;;;;28.31;33.89;98224.56;4928893;28;20192;-75
2022/07/09 09:57:37;;;;;;;2.75;2.17;;;;;;;28.68;33.04;98221.84;4945317;28;20171;-75
2022/07/09 10:00:03;;;;;;;3.15;1.92;;;;;;;28.77;32.58;98217.16;4928925;28;20228;-75
2022/07/09 10:02:29;;;;;;;2.22;1.95;;;;;;;29.16;32.83;98222.06;4942298;28;20285;-75
2022/07/09 10:04:55;;;;;;;2.53;1.65;;;;;;;29.28;32.12;98224.69;4947217;28;20219;-75
2022/07/09 10:07:21;;;;;;;2.28;2.08;;;;;;;29.18;32.09;98217.13;4945834;28;20172;-75
2022/07/09 10:09:59;;;;;;;3.22;1.95;;;;;;;28.45;33.76;98218.06;4945560;28;20200;-75
2022/07/09 10:12:34;;;;;;;3.83;2.35;;;;;;;28.75;32.22;98224.75;4961950;28;20322;-76
2022/07/09 10:14:59;;;;;;;4.65;1.80;;;;;;;28.61;33.43;98224.31;4961573;28;20568;-75
2022/07/09 10:17:26;;;;;;;2.65;1.40;;;;;;;28.75;33.49;98211.34;4945765;28;20226;-76
2022/07/09 10:19:55;;;;;;;1.63;1.52;;;;;;;28.83;32.80;98215.00;4945428;28;20567;-75
2022/07/09 10:22:41;;;;;;;3.00;2.10;;;;;;;28.44;34.05;98213.81;4945307;28;20299;-75
2022/07/09 10:25:07;;;;;;;4.13;2.28;;;;;;;28.52;33.43;98210.25;4944883;28;20273;-75
2022/07/09 10:27:43;;;;;;;2.75;1.50;;;;;;;28.30;33.15;98208.81;4962021;28;20349;-75
2022/07/09 10:30:22;;;;;;;3.50;1.70;;;;;;;28.69;31.46;98210.00;4945460;28;20037;-75
2022/07/09 10:33:04;;;;;;;2.80;1.77;;;;;;;28.37;33.63;98206.34;4945066;28;20648;-75
2022/07/09 10:35:30;;;;;;;3.05;1.67;;;;;;;29.35;31.58;98205.31;4944495;28;20675;-76
2022/07/09 10:37:55;;;;;;;2.08;1.60;;;;;;;29.92;30.60;98203.34;4958918;28;20286;-76
2022/07/09 10:40:22;;;;;;;3.38;1.65;;;;;;;29.88;30.86;98197.09;4944305;28;20337;-75
2022/07/09 10:43:02;;;;;;;1.40;1.30;;;;;;;30.13;30.52;98186.94;4921662;28;20285;-75
2022/07/09 10:45:32;;;;;;;2.65;1.95;;;;;;;30.50;30.38;98178.53;4944750;28;20180;-75
2022/07/09 10:47:59;;;;;;;2.47;1.83;;;;;;;30.68;30.62;98188.91;4960945;28;20262;-75
2022/07/09 10:50:27;;;;;;;1.70;1.60;;;;;;;30.73;30.46;98184.00;4944735;28;20267;-75
2022/07/09 10:52:53;;;;;;;2.10;1.92;;;;;;;31.17;29.36;98178.34;4961644;28;20276;-75
2022/07/09 10:55:20;;;;;;;2.33;1.75;;;;;;;30.97;29.77;98174.91;4944921;28;20177;-75
2022/07/09 10:57:45;;;;;;;1.73;1.63;;;;;;;31.11;29.59;98177.09;4928422;28;20188;-75
2022/07/09 11:00:17;;;;;;;3.72;1.40;;;;;;;30.49;29.59;98176.22;4946257;28;20211;-75
2022/07/09 11:03:04;;;;;;;2.17;1.55;;;;;;;30.75;29.32;98181.75;4938741;28;20423;-76
2022/07/09 11:05:31;;;;;;;2.03;1.52;;;;;;;30.89;28.92;98172.41;4946569;28;20697;-75
2022/07/09 11:08:01;;;;;;;2.75;1.60;;;;;;;30.49;30.10;98166.25;4928022;28;20161;-75
2022/07/09 11:10:27;;;;;;;2.88;1.45;;;;;;;30.59;30.12;98162.22;4927943;28;20703;-75
2022/07/09 11:12:54;;;;;;;2.05;1.90;;;;;;;30.91;29.35;98156.69;4960860;28;20165;-75
2022/07/09 11:15:20;;;;;;;1.55;1.45;;;;;;;30.20;30.19;98164.81;4943618;28;20256;-75
2022/07/09 11:18:11;;;;;;;2.15;1.50;;;;;;;29.57;31.79;98163.72;4944265;28;20123;-75
2022/07/09 11:20:40;;;;;;;2.03;1.83;;;;;;;29.66;31.01;98166.22;4928047;28;20260;-75
2022/07/09 11:23:06;;;;;;;2.10;1.50;;;;;;;29.58;31.14;98159.13;4945923;28;20582;-75
2022/07/09 11:25:31;;;;;;;3.28;1.70;;;;;;;29.44;32.29;98162.22;4944178;28;20196;-75
2022/07/09 11:27:59;;;;;;;2.42;1.63;;;;;;;29.92;30.86;98156.88;4960344;28;20169;-75
2022/07/09 11:30:25;;;;;;;1.88;1.40;;;;;;;30.18;29.56;98151.75;4911931;28;20634;-75